createdAt,value
2018-08-30T00:01:59.015Z,20.57
2018-08-30T00:04:26.255Z,20.55
2018-08-30T00:06:53.493Z,20.53
2018-08-30T00:09:20.700Z,20.56
2018-08-30T00:11:47.937Z,20.57
2018-08-30T00:14:15.141Z,20.54
2018-08-30T00:16:42.410Z,20.51
2018-08-30T00:22:01.560Z,20.46
2018-08-30T00:24:28.777Z,20.41
2018-08-30T00:26:56.013Z,20.39
2018-08-30T00:29:23.246Z,20.37
2018-08-30T00:31:50.467Z,20.33
2018-08-30T00:34:17.671Z,20.33
2018-08-30T00:36:44.915Z,20.33
2018-08-30T00:39:12.159Z,20.34
2018-08-30T00:41:39.447Z,20.36
2018-08-30T00:44:06.669Z,20.41
2018-08-30T00:46:33.930Z,20.38
2018-08-30T00:49:01.138Z,20.37
2018-08-30T00:51:28.382Z,20.38
2018-08-30T00:53:55.593Z,20.38
2018-08-30T00:56:22.830Z,20.39
2018-08-30T00:58:50.054Z,20.38
2018-08-30T01:01:17.273Z,20.40
2018-08-30T01:03:44.483Z,20.40
2018-08-30T01:06:11.809Z,20.42
2018-08-30T01:08:39.094Z,20.46
2018-08-30T01:11:06.627Z,20.51
2018-08-30T01:13:33.870Z,20.53
2018-08-30T01:16:01.085Z,20.52
2018-08-30T01:18:28.340Z,20.49
2018-08-30T01:20:55.631Z,20.48
2018-08-30T01:23:22.897Z,20.46
2018-08-30T01:25:50.141Z,20.43
2018-08-30T01:28:17.365Z,20.43
2018-08-30T01:30:44.629Z,20.43
2018-08-30T01:33:11.833Z,20.41
2018-08-30T01:35:39.242Z,20.35
2018-08-30T01:38:06.622Z,20.30
2018-08-30T01:40:33.891Z,20.28
2018-08-30T01:43:01.146Z,20.25
2018-08-30T01:45:28.344Z,20.22
2018-08-30T01:47:55.578Z,20.18
2018-08-30T01:50:22.789Z,20.13
2018-08-30T01:52:50.104Z,20.09
2018-08-30T01:55:17.341Z,20.08
2018-08-30T01:57:44.597Z,20.08
2018-08-30T02:00:11.824Z,20.03
2018-08-30T02:02:39.049Z,20.01
2018-08-30T02:05:06.320Z,20.02
2018-08-30T02:07:33.536Z,20.00
2018-08-30T02:10:00.758Z,20.00
2018-08-30T02:12:28.030Z,20.00
2018-08-30T02:14:55.246Z,19.98
2018-08-30T02:17:22.467Z,19.98
2018-08-30T02:19:49.702Z,20.00
2018-08-30T02:22:16.944Z,20.03
2018-08-30T02:24:44.149Z,20.05
2018-08-30T02:27:11.374Z,20.04
2018-08-30T02:29:38.642Z,20.03
2018-08-30T02:32:05.963Z,20.01
2018-08-30T02:34:33.176Z,19.89
2018-08-30T02:37:00.445Z,19.80
2018-08-30T02:39:27.712Z,19.70
2018-08-30T02:41:54.917Z,19.60
2018-08-30T02:44:22.117Z,19.53
2018-08-30T02:46:49.367Z,19.45
2018-08-30T02:49:16.586Z,19.39
2018-08-30T02:51:43.813Z,19.28
2018-08-30T02:54:11.005Z,19.21
2018-08-30T02:56:38.235Z,19.13
2018-08-30T02:59:05.523Z,19.11
2018-08-30T03:01:32.763Z,19.10
2018-08-30T03:03:59.997Z,19.05
2018-08-30T03:06:27.344Z,18.97
2018-08-30T03:08:54.538Z,18.91
2018-08-30T03:11:21.759Z,18.94
2018-08-30T03:13:48.990Z,18.96
2018-08-30T03:16:16.213Z,18.97
2018-08-30T03:18:45.557Z,18.90
2018-08-30T03:21:14.057Z,18.90
2018-08-30T03:23:42.324Z,18.83
2018-08-30T03:26:09.566Z,18.82
2018-08-30T03:28:36.849Z,18.76
2018-08-30T03:31:04.267Z,18.69
2018-08-30T03:33:31.514Z,18.65
2018-08-30T03:35:58.739Z,18.65
2018-08-30T03:38:25.989Z,18.62
2018-08-30T03:40:53.216Z,18.58
2018-08-30T03:43:20.470Z,18.56
2018-08-30T03:45:47.732Z,18.56
2018-08-30T03:48:14.953Z,18.55
2018-08-30T03:50:42.173Z,18.54
2018-08-30T03:53:09.397Z,18.56
2018-08-30T03:55:36.610Z,18.53
2018-08-30T03:58:03.905Z,18.52
2018-08-30T04:00:31.110Z,18.52
2018-08-30T04:02:58.347Z,18.51
2018-08-30T04:05:25.576Z,18.51
2018-08-30T04:07:52.818Z,18.51
2018-08-30T04:10:20.076Z,18.53
2018-08-30T04:12:47.311Z,18.54
2018-08-30T04:15:14.541Z,18.54
2018-08-30T04:17:41.790Z,18.52
2018-08-30T04:20:09.037Z,18.52
2018-08-30T04:22:36.304Z,18.53
2018-08-30T04:25:03.543Z,18.51
2018-08-30T04:27:30.802Z,18.50
2018-08-30T04:29:58.029Z,18.46
2018-08-30T04:32:25.317Z,18.48
2018-08-30T04:34:52.560Z,18.46
2018-08-30T04:37:19.813Z,18.44
2018-08-30T04:39:47.064Z,18.41
2018-08-30T04:42:14.307Z,18.39
2018-08-30T04:44:41.585Z,18.37
2018-08-30T04:47:08.805Z,18.36
2018-08-30T04:49:36.066Z,18.34
2018-08-30T04:52:03.380Z,18.36
2018-08-30T04:54:30.627Z,18.33
2018-08-30T04:56:57.850Z,18.34
2018-08-30T04:59:25.104Z,18.30
2018-08-30T05:01:52.385Z,18.30
2018-08-30T05:04:20.486Z,18.28
2018-08-30T05:06:47.722Z,18.24
2018-08-30T05:09:14.974Z,18.24
2018-08-30T05:11:42.224Z,18.19
2018-08-30T05:14:09.687Z,18.16
2018-08-30T05:16:37.422Z,18.14
2018-08-30T05:19:04.911Z,18.12
2018-08-30T05:21:32.436Z,18.11
2018-08-30T05:23:59.705Z,18.11
2018-08-30T05:26:26.959Z,18.09
2018-08-30T05:28:54.193Z,18.11
2018-08-30T05:31:21.469Z,18.09
2018-08-30T05:33:48.733Z,18.06
2018-08-30T05:36:15.947Z,18.07
2018-08-30T05:38:43.282Z,17.97
2018-08-30T05:41:10.906Z,18.02
2018-08-30T05:43:38.399Z,18.06
2018-08-30T05:46:05.722Z,18.07
2018-08-30T05:48:33.025Z,18.08
2018-08-30T05:51:01.542Z,18.11
2018-08-30T05:53:29.790Z,18.13
2018-08-30T05:55:58.260Z,18.10
2018-08-30T05:58:26.462Z,18.07
2018-08-30T06:00:54.663Z,18.10
2018-08-30T06:03:21.955Z,18.12
2018-08-30T06:05:49.212Z,18.15
2018-08-30T06:08:16.503Z,18.10
2018-08-30T06:10:43.813Z,18.03
2018-08-30T06:13:11.104Z,18.00
2018-08-30T06:15:38.334Z,17.97
2018-08-30T06:18:05.649Z,17.90
2018-08-30T06:20:32.917Z,17.88
2018-08-30T06:23:00.213Z,17.82
2018-08-30T06:25:27.490Z,17.82
2018-08-30T06:27:54.728Z,17.77
2018-08-30T06:30:22.022Z,17.70
2018-08-30T06:32:49.293Z,17.67
2018-08-30T06:35:16.537Z,17.69
2018-08-30T06:37:43.835Z,17.77
2018-08-30T06:40:11.097Z,17.73
2018-08-30T06:42:38.329Z,17.66
2018-08-30T06:45:06.142Z,17.64
2018-08-30T06:47:33.391Z,17.66
2018-08-30T06:50:00.624Z,17.67
2018-08-30T06:52:27.903Z,17.65
2018-08-30T06:54:57.032Z,17.66
2018-08-30T06:57:24.304Z,17.67
2018-08-30T06:59:51.552Z,17.68
2018-08-30T07:02:18.771Z,17.69
2018-08-30T07:04:46.224Z,17.58
2018-08-30T07:07:13.465Z,17.61
2018-08-30T07:09:40.754Z,17.56
2018-08-30T07:12:08.026Z,17.50
2018-08-30T07:14:49.607Z,17.45
2018-08-30T07:17:31.276Z,17.37
2018-08-30T07:20:14.298Z,17.32
2018-08-30T07:22:56.283Z,17.28
2018-08-30T07:25:37.934Z,17.26
2018-08-30T07:28:05.187Z,17.28
2018-08-30T07:30:32.441Z,17.17
2018-08-30T07:32:59.665Z,17.14
2018-08-30T07:35:27.649Z,17.12
2018-08-30T07:37:54.878Z,17.08
2018-08-30T07:40:22.122Z,17.05
2018-08-30T07:42:49.343Z,17.08
2018-08-30T07:45:16.598Z,17.11
2018-08-30T07:47:43.840Z,17.11
2018-08-30T07:50:11.093Z,16.93
2018-08-30T07:52:38.304Z,16.94
2018-08-30T07:55:05.534Z,16.84
2018-08-30T07:57:32.772Z,16.78
2018-08-30T08:00:00.129Z,16.87
2018-08-30T08:02:27.392Z,16.85
2018-08-30T08:04:54.634Z,16.87
2018-08-30T08:07:21.949Z,16.79
2018-08-30T08:09:49.170Z,16.84
2018-08-30T08:12:16.397Z,16.89
2018-08-30T08:14:43.684Z,16.84
2018-08-30T08:17:10.925Z,16.94
2018-08-30T08:19:38.214Z,17.00
2018-08-30T08:22:05.626Z,16.96
2018-08-30T08:24:35.207Z,17.07
2018-08-30T08:27:02.489Z,17.04
2018-08-30T08:29:29.946Z,17.00
2018-08-30T08:31:57.226Z,17.00
2018-08-30T08:34:24.472Z,17.04
2018-08-30T08:36:51.782Z,17.07
2018-08-30T08:39:19.095Z,17.05
2018-08-30T08:41:46.395Z,17.03
2018-08-30T08:44:13.651Z,17.00
2018-08-30T08:46:40.899Z,16.88
2018-08-30T08:49:08.218Z,16.81
2018-08-30T08:51:35.500Z,16.81
2018-08-30T08:54:02.883Z,16.81
2018-08-30T08:56:30.158Z,16.80
2018-08-30T08:58:57.492Z,16.74
2018-08-30T09:03:58.830Z,16.66
2018-08-30T09:06:26.086Z,16.61
2018-08-30T09:08:53.441Z,16.61
2018-08-30T09:11:20.748Z,16.54
2018-08-30T09:13:48.254Z,16.55
2018-08-30T09:16:15.530Z,16.56
2018-08-30T09:18:42.893Z,16.60
2018-08-30T09:21:10.268Z,16.63
2018-08-30T09:23:37.525Z,16.60
2018-08-30T09:26:04.966Z,16.52
2018-08-30T09:28:32.300Z,16.57
2018-08-30T09:30:59.660Z,16.57
2018-08-30T09:33:26.816Z,16.60
2018-08-30T09:35:54.301Z,16.60
2018-08-30T09:38:21.568Z,16.63
2018-08-30T09:40:48.850Z,16.73
2018-08-30T09:43:16.077Z,16.80
2018-08-30T09:45:43.346Z,16.84
2018-08-30T09:48:10.609Z,16.82
2018-08-30T09:50:37.844Z,16.82
2018-08-30T09:53:05.121Z,16.90
2018-08-30T09:55:32.350Z,16.97
2018-08-30T09:57:59.605Z,16.91
2018-08-30T10:00:32.515Z,16.89
2018-08-30T10:02:59.805Z,16.88
2018-08-30T10:05:27.064Z,16.89
2018-08-30T10:07:54.412Z,16.88
2018-08-30T10:10:21.661Z,16.94
2018-08-30T10:12:48.909Z,16.97
2018-08-30T10:15:16.158Z,17.00
2018-08-30T10:17:43.577Z,17.04
2018-08-30T10:20:10.894Z,17.02
2018-08-30T10:22:38.237Z,17.04
2018-08-30T10:25:05.969Z,17.13
2018-08-30T10:27:33.289Z,17.20
2018-08-30T10:30:00.561Z,17.21
2018-08-30T10:32:28.043Z,17.20
2018-08-30T10:34:55.333Z,17.20
2018-08-30T10:37:22.701Z,17.18
2018-08-30T10:39:49.981Z,17.15
2018-08-30T10:42:17.244Z,17.16
2018-08-30T10:44:44.682Z,17.20
2018-08-30T10:47:11.945Z,17.21
2018-08-30T10:49:39.313Z,17.18
2018-08-30T10:52:06.765Z,17.16
2018-08-30T10:54:34.232Z,17.18
2018-08-30T10:57:01.553Z,17.20
2018-08-30T10:59:28.955Z,17.27
2018-08-30T11:01:56.367Z,17.24
2018-08-30T11:04:23.776Z,17.26
2018-08-30T11:06:51.074Z,17.36
2018-08-30T11:09:18.511Z,17.32
2018-08-30T11:11:45.850Z,17.25
2018-08-30T11:14:13.710Z,17.32
2018-08-30T11:16:41.039Z,17.48
2018-08-30T11:19:08.487Z,17.54
2018-08-30T11:21:35.782Z,17.56
2018-08-30T11:24:03.063Z,17.71
2018-08-30T11:26:30.285Z,17.77
2018-08-30T11:28:57.882Z,17.73
2018-08-30T11:31:25.145Z,17.71
2018-08-30T11:33:52.437Z,17.79
2018-08-30T11:36:27.910Z,17.80
2018-08-30T11:38:55.444Z,17.87
2018-08-30T11:41:22.769Z,17.90
2018-08-30T11:43:50.090Z,18.10
2018-08-30T11:46:17.410Z,18.15
2018-08-30T11:48:44.730Z,18.31
2018-08-30T11:51:12.060Z,18.70
2018-08-30T11:53:39.623Z,19.15
2018-08-30T11:56:06.924Z,19.54
2018-08-30T11:58:34.375Z,19.86
2018-08-30T12:01:01.882Z,19.85
2018-08-30T12:03:29.361Z,19.77
2018-08-30T12:05:56.687Z,19.37
2018-08-30T12:08:24.066Z,19.11
2018-08-30T12:10:51.460Z,19.20
2018-08-30T12:13:18.709Z,19.65
2018-08-30T12:15:45.959Z,19.97
2018-08-30T12:18:13.424Z,19.75
2018-08-30T12:20:40.933Z,19.56
2018-08-30T12:23:08.159Z,19.46
2018-08-30T12:25:36.287Z,19.29
2018-08-30T12:28:03.564Z,18.97
2018-08-30T12:30:30.849Z,18.93
2018-08-30T12:32:58.099Z,18.92
2018-08-30T12:35:25.600Z,18.86
2018-08-30T12:37:52.921Z,18.82
2018-08-30T12:40:21.119Z,18.84
2018-08-30T12:42:48.585Z,18.97
2018-08-30T12:45:15.722Z,19.22
2018-08-30T12:47:42.998Z,19.47
2018-08-30T12:50:10.365Z,19.74
2018-08-30T12:52:37.874Z,19.67
2018-08-30T12:55:05.398Z,19.61
2018-08-30T12:57:32.667Z,19.45
2018-08-30T12:59:59.939Z,19.27
2018-08-30T13:02:27.735Z,19.32
2018-08-30T13:04:55.013Z,19.15
2018-08-30T13:07:24.173Z,19.21
2018-08-30T13:09:51.687Z,19.26
2018-08-30T13:12:19.040Z,19.31
2018-08-30T13:14:46.467Z,19.29
2018-08-30T13:17:13.651Z,19.41
2018-08-30T13:19:41.255Z,19.45
2018-08-30T13:22:08.535Z,19.41
2018-08-30T13:24:35.925Z,19.39
2018-08-30T13:27:03.277Z,19.24
2018-08-30T13:29:30.449Z,19.04
2018-08-30T13:31:57.856Z,19.04
2018-08-30T13:34:25.310Z,18.88
2018-08-30T13:36:52.721Z,18.88
2018-08-30T13:39:20.164Z,18.84
2018-08-30T13:41:47.045Z,18.64
2018-08-30T13:44:14.334Z,18.52
2018-08-30T13:46:41.855Z,18.39
2018-08-30T13:49:10.109Z,18.38
2018-08-30T13:51:37.406Z,18.48
2018-08-30T13:54:04.915Z,18.49
2018-08-30T13:56:32.117Z,18.53
2018-08-30T13:58:59.382Z,18.51
2018-08-30T14:01:26.763Z,18.62
2018-08-30T14:03:53.728Z,18.59
2018-08-30T14:06:21.133Z,18.67
2018-08-30T14:08:48.419Z,18.79
2018-08-30T14:11:15.667Z,18.88
2018-08-30T14:13:43.689Z,19.09
2018-08-30T14:16:11.281Z,19.21
2018-08-30T14:18:38.532Z,19.24
2018-08-30T14:21:05.795Z,19.40
2018-08-30T14:23:33.365Z,19.46
2018-08-30T14:26:00.635Z,19.51
2018-08-30T14:28:27.885Z,19.69
2018-08-30T14:30:55.145Z,19.84
2018-08-30T14:33:22.426Z,20.11
2018-08-30T14:35:49.672Z,20.21
2018-08-30T14:38:16.966Z,20.56
2018-08-30T14:40:44.266Z,20.92
2018-08-30T14:43:11.449Z,20.86
2018-08-30T14:45:38.748Z,20.81
2018-08-30T14:48:06.065Z,20.90
2018-08-30T14:50:33.448Z,20.84
2018-08-30T14:53:00.663Z,20.78
2018-08-30T14:55:27.922Z,20.61
2018-08-30T14:57:55.125Z,20.64
2018-08-30T15:00:22.673Z,20.65
2018-08-30T15:02:49.842Z,20.81
2018-08-30T15:05:17.268Z,20.66
2018-08-30T15:07:44.369Z,20.65
2018-08-30T15:10:11.686Z,20.49
2018-08-30T15:12:38.938Z,20.47
2018-08-30T15:15:06.275Z,20.47
2018-08-30T15:17:33.622Z,20.36
2018-08-30T15:20:01.057Z,20.37
2018-08-30T15:22:28.363Z,20.33
2018-08-30T15:24:55.628Z,20.20
2018-08-30T15:27:22.890Z,20.15
2018-08-30T15:29:50.165Z,20.26
2018-08-30T15:32:17.378Z,20.37
2018-08-30T15:34:44.617Z,20.39
2018-08-30T15:37:11.847Z,20.32
2018-08-30T15:39:39.087Z,20.26
2018-08-30T15:42:06.330Z,20.18
2018-08-30T15:44:33.745Z,20.31
2018-08-30T15:47:01.039Z,20.47
2018-08-30T15:49:28.660Z,20.41
2018-08-30T15:51:56.018Z,20.38
2018-08-30T15:54:23.230Z,20.35
2018-08-30T15:56:50.498Z,20.32
2018-08-30T15:59:17.812Z,20.31
2018-08-30T16:01:45.014Z,20.41
2018-08-30T16:04:12.298Z,20.57
2018-08-30T16:06:39.593Z,20.63
2018-08-30T16:09:08.213Z,20.76
2018-08-30T16:11:35.490Z,20.80
2018-08-30T16:14:02.729Z,20.75
2018-08-30T16:16:29.969Z,20.66
2018-08-30T16:18:57.266Z,20.63
2018-08-30T16:21:24.632Z,20.46
2018-08-30T16:23:51.849Z,20.41
2018-08-30T16:26:19.108Z,20.34
2018-08-30T16:28:46.344Z,20.26
2018-08-30T16:31:13.641Z,20.25
2018-08-30T16:33:40.907Z,20.29
2018-08-30T16:36:08.194Z,20.30
2018-08-30T16:38:35.592Z,20.29
2018-08-30T16:41:02.861Z,20.29
2018-08-30T16:43:30.115Z,20.30
2018-08-30T16:45:57.527Z,20.31
2018-08-30T16:48:24.913Z,20.26
2018-08-30T16:50:52.151Z,20.18
2018-08-30T16:53:19.450Z,20.15
2018-08-30T16:55:46.680Z,20.12
2018-08-30T16:58:13.974Z,20.06
2018-08-30T17:00:41.219Z,20.04
2018-08-30T17:03:08.685Z,19.92
2018-08-30T17:05:35.949Z,19.83
2018-08-30T17:08:03.195Z,19.80
2018-08-30T17:10:30.473Z,19.74
2018-08-30T17:12:58.708Z,19.68
2018-08-30T17:15:25.926Z,19.63
2018-08-30T17:17:53.254Z,19.55
2018-08-30T17:20:27.025Z,19.52
2018-08-30T17:22:54.299Z,19.55
2018-08-30T17:25:21.604Z,19.54
2018-08-30T17:27:48.770Z,19.51
2018-08-30T17:30:15.961Z,19.52
2018-08-30T17:32:43.294Z,19.45
2018-08-30T17:35:10.482Z,19.42
2018-08-30T17:37:37.739Z,19.37
2018-08-30T17:40:05.308Z,19.31
2018-08-30T17:42:32.600Z,19.24
2018-08-30T17:44:59.837Z,19.19
2018-08-30T17:47:27.091Z,19.15
2018-08-30T17:49:54.366Z,19.04
2018-08-30T17:52:21.646Z,18.97
2018-08-30T17:54:48.914Z,18.90
2018-08-30T17:57:16.203Z,18.79
2018-08-30T17:59:43.548Z,18.71
2018-08-30T18:02:10.922Z,18.70
2018-08-30T18:04:38.406Z,18.64
2018-08-30T18:07:05.880Z,18.55
2018-08-30T18:09:33.182Z,18.47
2018-08-30T18:12:00.428Z,18.36
2018-08-30T18:14:27.814Z,18.31
2018-08-30T18:16:55.045Z,18.23
2018-08-30T18:19:22.303Z,18.19
2018-08-30T18:21:49.572Z,18.12
2018-08-30T18:24:16.879Z,18.05
2018-08-30T18:26:44.206Z,17.95
2018-08-30T18:29:11.472Z,17.91
2018-08-30T18:31:38.804Z,17.83
2018-08-30T18:34:06.082Z,17.79
2018-08-30T18:36:33.442Z,17.73
2018-08-30T18:39:00.658Z,17.62
2018-08-30T18:41:27.976Z,17.57
2018-08-30T18:43:55.314Z,17.51
2018-08-30T18:46:22.641Z,17.41
2018-08-30T18:48:49.975Z,17.42
2018-08-30T18:51:17.326Z,17.34
2018-08-30T18:53:47.466Z,17.32
2018-08-30T18:56:14.719Z,17.22
2018-08-30T18:58:42.034Z,17.17
2018-08-30T19:01:09.446Z,17.09
2018-08-30T19:03:36.798Z,17.02
2018-08-30T19:06:04.172Z,16.93
2018-08-30T19:08:31.496Z,16.91
2018-08-30T19:10:58.726Z,16.81
2018-08-30T19:13:26.213Z,16.77
2018-08-30T19:15:59.153Z,16.73
2018-08-30T19:18:32.233Z,16.68
2018-08-30T19:20:59.549Z,16.60
2018-08-30T19:23:26.920Z,16.51
2018-08-30T19:25:54.175Z,16.40
2018-08-30T19:28:21.461Z,16.28
2018-08-30T19:30:48.715Z,16.14
2018-08-30T19:33:16.014Z,16.04
2018-08-30T19:35:48.829Z,16.01
2018-08-30T19:38:16.170Z,15.91
2018-08-30T19:40:49.180Z,15.86
2018-08-30T19:43:23.149Z,15.83
2018-08-30T19:45:50.402Z,15.83
2018-08-30T19:48:17.748Z,15.83
2018-08-30T19:50:45.048Z,15.84
2018-08-30T19:53:12.349Z,15.88
2018-08-30T19:55:39.826Z,15.92
2018-08-30T19:58:07.168Z,15.98
2018-08-30T20:00:34.385Z,16.02
2018-08-30T20:03:01.716Z,16.02
2018-08-30T20:05:29.839Z,15.97
2018-08-30T20:07:57.218Z,15.94
2018-08-30T20:10:24.606Z,15.88
2018-08-30T20:12:51.858Z,15.88
2018-08-30T20:15:19.087Z,15.83
2018-08-30T20:17:46.330Z,15.86
2018-08-30T20:20:13.545Z,15.85
2018-08-30T20:22:40.816Z,15.84
2018-08-30T20:25:08.022Z,15.80
2018-08-30T20:27:35.514Z,15.78
2018-08-30T20:30:02.832Z,15.73
2018-08-30T20:32:30.074Z,15.65
2018-08-30T20:34:57.298Z,15.60
2018-08-30T20:37:24.506Z,15.59
2018-08-30T20:39:52.270Z,15.57
2018-08-30T20:42:19.482Z,15.57
2018-08-30T20:44:46.906Z,15.56
2018-08-30T20:47:14.214Z,15.59
2018-08-30T20:49:41.787Z,15.60
2018-08-30T20:52:09.070Z,15.62
2018-08-30T20:54:36.298Z,15.63
2018-08-30T20:57:03.774Z,15.66
2018-08-30T20:59:31.315Z,15.62
2018-08-30T21:01:58.573Z,15.59
2018-08-30T21:04:25.817Z,15.51
2018-08-30T21:06:53.041Z,15.43
2018-08-30T21:09:20.306Z,15.37
2018-08-30T21:11:47.546Z,15.26
2018-08-30T21:14:14.793Z,15.20
2018-08-30T21:16:41.987Z,15.15
2018-08-30T21:19:10.201Z,15.13
2018-08-30T21:21:38.498Z,15.07
2018-08-30T21:24:05.782Z,15.02
2018-08-30T21:26:32.987Z,14.94
2018-08-30T21:29:00.222Z,14.88
2018-08-30T21:31:27.430Z,14.81
2018-08-30T21:33:54.786Z,14.76
2018-08-30T21:36:21.993Z,14.75
2018-08-30T21:38:49.249Z,14.68
2018-08-30T21:41:16.461Z,14.61
2018-08-30T21:43:43.706Z,14.61
2018-08-30T21:46:11.004Z,14.57
2018-08-30T21:48:38.279Z,14.56
2018-08-30T21:51:05.525Z,14.52
2018-08-30T21:53:32.754Z,14.47
2018-08-30T21:56:00.011Z,14.43
2018-08-30T21:58:27.204Z,14.40
2018-08-30T22:00:54.454Z,14.33
2018-08-30T22:03:21.697Z,14.29
2018-08-30T22:05:48.939Z,14.28
2018-08-30T22:08:16.165Z,14.23
2018-08-30T22:10:43.570Z,14.20
2018-08-30T22:13:10.930Z,14.18
2018-08-30T22:15:38.125Z,14.15
2018-08-30T22:18:05.383Z,14.13
2018-08-30T22:20:32.985Z,14.08
2018-08-30T22:23:00.200Z,14.01
2018-08-30T22:25:27.425Z,13.97
2018-08-30T22:27:54.653Z,13.92
2018-08-30T22:30:21.893Z,13.88
2018-08-30T22:32:49.086Z,13.81
2018-08-30T22:35:16.309Z,13.77
2018-08-30T22:37:43.521Z,13.70
2018-08-30T22:40:10.769Z,13.62
2018-08-30T22:42:37.977Z,13.54
2018-08-30T22:45:05.422Z,13.46
2018-08-30T22:47:33.052Z,13.41
2018-08-30T22:50:00.303Z,13.36
2018-08-30T22:52:27.922Z,13.33
2018-08-30T22:54:55.503Z,13.29
2018-08-30T22:57:22.723Z,13.28
2018-08-30T22:59:49.967Z,13.26
2018-08-30T23:02:17.159Z,13.25
2018-08-30T23:04:44.406Z,13.25
2018-08-30T23:07:11.673Z,13.20
2018-08-30T23:09:38.894Z,13.17
2018-08-30T23:12:06.245Z,13.15
2018-08-30T23:14:33.505Z,13.16
2018-08-30T23:17:00.853Z,13.17
2018-08-30T23:19:28.109Z,13.20
2018-08-30T23:21:55.349Z,13.25
2018-08-30T23:24:22.557Z,13.27
2018-08-30T23:26:49.797Z,13.23
2018-08-30T23:29:16.982Z,13.18
2018-08-30T23:31:44.199Z,13.04
2018-08-30T23:34:11.405Z,12.91
2018-08-30T23:36:38.625Z,12.81
2018-08-30T23:39:07.505Z,12.74
2018-08-30T23:41:34.749Z,12.71
2018-08-30T23:44:01.942Z,12.69
2018-08-30T23:46:29.169Z,12.71
2018-08-30T23:48:56.362Z,12.73
2018-08-30T23:51:23.666Z,12.74
2018-08-30T23:53:50.857Z,12.78
2018-08-30T23:56:18.176Z,12.76
2018-08-30T23:58:56.977Z,12.70
